.
WxDataArchive / Data Records for 2008-07-16
2008-07-15 July 2008 2008-07-17

Data Records for Wednesday, 16 July 2008

Time	Temp	Chill	HIndex	Humid	Dewpt	 Wind 	HiWind	WindDir	Rain 	Barom 
-----	----	-----	------	-----	-----	------	------	-------	-----	----- 
00:00	72.7	72.7	72.7	75	64.3	0	1	270	0.00	30.034 
00:05	72.5	72.5	72.5	75	64.1	0	0	---	0.00	30.034 
00:10	72.5	72.5	72.5	75	64.1	0	1	270	0.00	30.035 
00:15	72.7	72.7	72.7	75	64.3	0	1	270	0.00	30.035 
00:20	72.7	72.7	72.7	75	64.3	0	1	270	0.00	30.035 
00:25	72.5	72.5	72.5	76	64.5	0	1	270	0.00	30.034 
00:30	72.3	72.3	72.3	76	64.3	0	0	---	0.00	30.036 
00:35	72.1	72.1	72.1	77	64.5	0	0	---	0.00	30.035 
00:40	72.0	72.0	72.0	77	64.4	0	0	---	0.00	30.035 
00:45	71.8	71.8	71.8	78	64.6	0	0	---	0.00	30.034 
00:50	71.6	71.6	71.6	78	64.4	0	0	---	0.00	30.035 
00:55	71.5	71.5	71.5	79	64.6	0	0	---	0.00	30.033 
01:00	71.3	71.3	71.3	79	64.4	0	0	---	0.00	30.035 
01:05	71.1	71.1	71.1	80	64.6	0	0	---	0.00	30.033 
01:10	70.9	70.9	70.9	80	64.4	0	0	---	0.00	30.034 
01:15	70.8	70.8	70.8	81	64.7	0	0	---	0.00	30.033 
01:20	70.6	70.6	70.6	81	64.5	0	0	---	0.00	30.034 
01:25	70.4	70.4	70.4	82	64.6	0	0	---	0.00	30.034 
01:30	70.3	70.3	70.3	82	64.5	0	0	---	0.00	30.032 
01:35	70.3	70.3	70.3	83	64.9	0	0	---	0.00	30.032 
01:40	70.1	70.1	70.1	83	64.7	0	0	---	0.00	30.032 
01:45	70.1	70.1	70.1	84	65.0	0	0	---	0.00	30.032 
01:50	69.9	69.9	69.9	84	64.8	0	0	---	0.00	30.033 
01:55	69.9	69.9	69.9	84	64.8	0	0	---	0.00	30.033 
02:00	69.9	69.9	69.9	85	65.2	0	0	---	0.00	30.033 
02:05	69.8	69.8	69.8	85	65.1	0	0	---	0.00	30.033 
02:10	69.8	69.8	69.8	85	65.1	0	0	---	0.00	30.032 
02:15	69.8	69.8	69.8	85	65.1	0	0	---	0.00	30.032 
02:20	69.8	69.8	69.8	85	65.1	0	0	---	0.00	30.033 
02:25	69.8	69.8	69.8	86	65.4	0	0	---	0.00	30.034 
02:30	69.6	69.6	69.6	86	65.2	0	0	---	0.00	30.034 
02:35	69.4	69.4	69.4	86	65.0	0	0	---	0.00	30.036 
02:40	69.4	69.4	69.4	86	65.0	0	0	---	0.00	30.036 
02:45	69.4	69.4	69.4	87	65.4	0	0	---	0.00	30.034 
02:50	69.3	69.3	69.3	87	65.3	0	0	---	0.00	30.036 
02:55	69.3	69.3	69.3	87	65.3	0	0	---	0.00	30.038 
03:00	69.1	69.1	69.1	88	65.4	0	0	---	0.00	30.039 
03:05	69.1	69.1	69.1	88	65.4	0	0	---	0.00	30.039 
03:10	69.1	69.1	69.1	88	65.4	0	0	---	0.00	30.038 
03:15	68.9	68.9	68.9	88	65.2	0	0	---	0.00	30.036 
03:20	68.9	68.9	68.9	88	65.2	0	0	---	0.00	30.037 
03:25	68.8	68.8	68.8	88	65.1	0	0	---	0.00	30.038 
03:30	68.8	68.8	68.8	89	65.4	0	0	---	0.00	30.044 
03:35	68.8	68.8	68.8	89	65.4	0	0	---	0.00	30.047 
03:40	68.6	68.6	68.6	89	65.2	0	0	---	0.00	30.049 
03:45	68.8	68.8	68.8	89	65.4	0	0	---	0.00	30.049 
03:50	68.8	68.8	68.8	90	65.7	0	0	---	0.00	30.048 
03:55	68.8	68.8	68.8	90	65.7	0	1	270	0.00	30.044 
04:00	68.9	68.9	68.9	90	65.8	0	0	---	0.00	30.041 
04:05	69.1	69.1	69.1	90	66.0	0	0	---	0.00	30.041 
04:10	69.1	69.1	69.1	89	65.7	0	0	---	0.00	30.043 
04:15	69.1	69.1	69.1	89	65.7	0	0	---	0.00	30.047 
04:20	69.1	69.1	69.1	89	65.7	0	0	---	0.00	30.048 
04:25	69.1	69.1	69.1	89	65.7	0	0	---	0.00	30.050 
04:30	68.9	68.9	68.9	89	65.5	0	0	---	0.00	30.051 
04:35	68.9	68.9	68.9	90	65.8	0	0	---	0.00	30.051 
04:40	68.8	68.8	68.8	90	65.7	0	0	---	0.00	30.051 
04:45	68.8	68.8	68.8	90	65.7	0	0	---	0.00	30.051 
04:50	68.8	68.8	68.8	90	65.7	0	0	---	0.00	30.052 
04:55	68.6	68.6	68.6	90	65.5	0	0	---	0.00	30.052 
05:00	68.6	68.6	68.6	90	65.5	0	0	---	0.00	30.051 
05:05	68.4	68.4	68.4	91	65.7	0	0	---	0.00	30.051 
05:10	68.3	68.3	68.3	91	65.6	0	0	---	0.00	30.052 
05:15	68.3	68.3	68.3	91	65.6	0	0	---	0.00	30.057 
05:20	68.3	68.3	68.3	91	65.6	0	0	---	0.00	30.061 
05:25	68.1	68.1	68.1	91	65.4	0	0	---	0.00	30.067 
05:30	68.1	68.1	68.1	92	65.7	0	0	---	0.00	30.068 
05:35	68.1	68.1	68.1	92	65.7	0	0	---	0.00	30.070 
05:40	67.9	67.9	67.9	92	65.5	0	0	---	0.00	30.068 
05:45	67.9	67.9	67.9	92	65.5	0	0	---	0.00	30.067 
05:50	67.8	67.8	67.8	92	65.4	0	0	---	0.00	30.068 
05:55	67.8	67.8	67.8	92	65.4	0	0	---	0.00	30.070 
06:00	67.8	67.8	67.8	92	65.4	0	0	---	0.00	30.073 
06:05	67.9	67.9	67.9	92	65.5	0	0	---	0.00	30.078 
06:10	68.1	68.1	68.1	92	65.7	0	0	---	0.00	30.084 
06:15	68.3	68.3	68.3	92	65.9	0	0	---	0.00	30.083 
06:20	68.6	68.6	68.6	92	66.2	0	0	---	0.00	30.081 
06:25	68.9	68.9	68.9	92	66.5	0	1	270	0.00	30.082 
06:30	69.6	69.6	69.6	91	66.8	0	1	270	0.00	30.085 
06:35	70.1	70.1	70.1	90	67.0	0	1	270	0.00	30.084 
06:40	70.6	70.6	70.6	89	67.2	0	2	270	0.00	30.087 
06:45	71.3	71.3	71.3	88	67.6	0	1	270	0.00	30.086 
06:50	71.8	71.8	71.8	86	67.4	0	1	270	0.00	30.085 
06:55	72.5	72.5	72.5	85	67.7	0	1	270	0.00	30.085 
07:00	73.0	73.0	73.0	83	67.5	0	1	270	0.00	30.087 
07:05	73.5	73.5	73.5	82	67.7	0	2	270	0.00	30.087 
07:10	74.0	74.0	74.0	81	67.8	0	1	270	0.00	30.089 
07:15	74.6	74.6	74.6	79	67.6	0	2	270	0.00	30.090 
07:20	75.1	75.1	75.8	79	68.1	0	2	270	0.00	30.092 
07:25	75.4	75.4	76.4	77	67.7	0	2	270	0.00	30.091 
07:30	75.8	75.8	77.0	77	68.1	0	2	270	0.00	30.091 
07:35	76.3	76.3	77.7	76	68.2	0	1	270	0.00	30.088 
07:40	76.7	76.7	78.3	74	67.8	1	2	270	0.00	30.088 
07:45	77.0	77.0	78.7	74	68.1	0	2	270	0.00	30.085 
07:50	77.2	77.2	79.0	73	67.9	1	2	270	0.00	30.085 
07:55	77.4	77.4	79.3	72	67.6	1	2	270	0.00	30.085 
08:00	77.7	77.7	79.7	73	68.3	0	2	270	0.00	30.088 
08:05	78.1	78.1	80.2	71	67.9	1	3	270	0.00	30.091 
08:10	78.5	78.5	80.7	70	67.9	0	2	270	0.00	30.090 
08:15	78.6	78.6	80.8	70	68.0	1	2	248	0.00	30.092 
08:20	79.0	79.0	81.3	69	67.9	1	3	248	0.00	30.094 
08:25	79.2	79.2	81.5	68	67.7	1	2	248	0.00	30.097 
08:30	79.4	79.4	81.7	67	67.5	1	3	248	0.00	30.097 
08:35	79.4	79.4	81.6	66	67.0	1	2	248	0.00	30.097 
08:40	76.0	76.0	77.0	80	69.4	1	3	248	0.00	30.098 
08:45	74.9	74.9	74.9	82	69.0	1	2	248	0.00	30.099 
08:50	74.7	74.7	74.7	83	69.2	1	3	248	0.00	30.099 
08:55	75.1	75.1	75.5	82	69.2	1	3	248	0.00	30.097 
09:00	75.6	75.6	76.3	81	69.3	1	4	248	0.00	30.099 
09:05	76.1	76.1	77.0	82	70.2	1	3	270	0.00	30.101 
09:10	76.7	76.7	78.1	79	69.7	1	3	270	0.00	30.100 
09:15	77.2	77.2	78.9	78	69.8	1	2	270	0.00	30.098 
09:20	77.4	77.4	79.3	78	70.0	1	3	270	0.00	30.096 
09:25	77.7	77.7	79.7	77	69.9	1	3	270	0.00	30.095 
09:30	78.5	78.5	81.0	75	69.9	1	2	248	0.00	30.093 
09:35	79.0	79.0	81.5	71	68.8	1	2	248	0.00	30.093 
09:40	79.9	79.9	82.8	70	69.2	1	2	248	0.00	30.092 
09:45	81.4	81.4	84.8	67	69.4	1	4	315	0.00	30.097 
09:50	82.2	82.2	85.5	64	68.8	1	3	248	0.00	30.096 
09:55	83.0	83.0	86.1	61	68.1	2	4	270	0.00	30.096 
10:00	83.4	83.4	86.8	61	68.5	1	3	270	0.00	30.095 
10:05	84.0	84.0	87.5	60	68.6	1	2	270	0.00	30.094 
10:10	84.1	84.1	87.4	59	68.2	1	3	270	0.00	30.094 
10:15	84.3	84.3	87.0	56	66.9	2	4	270	0.00	30.097 
10:20	84.7	84.7	87.9	57	67.7	2	3	270	0.00	30.096 
10:25	84.7	84.7	87.6	56	67.2	2	4	270	0.00	30.095 
10:30	84.9	84.9	88.2	57	67.9	1	4	270	0.00	30.092 
10:35	85.1	85.1	88.2	56	67.6	1	4	292	0.00	30.092 
10:40	85.3	85.3	88.2	55	67.3	1	4	292	0.00	30.094 
10:45	85.9	85.9	89.2	55	67.8	2	4	315	0.00	30.092 
10:50	86.1	86.1	89.2	54	67.5	1	3	248	0.00	30.094 
10:55	86.1	86.1	88.0	50	65.3	1	3	248	0.00	30.095 
11:00	86.1	86.1	88.9	53	66.9	1	3	315	0.00	30.095 
11:05	86.5	86.5	89.3	52	66.7	1	4	270	0.00	30.094 
11:10	86.7	86.7	88.3	48	64.6	2	7	270	0.00	30.093 
11:15	86.5	86.5	88.1	48	64.4	2	5	292	0.00	30.093 
11:20	86.5	86.5	88.1	48	64.4	1	3	292	0.00	30.093 
11:25	86.3	86.3	88.6	51	66.0	2	4	270	0.00	30.095 
11:30	86.5	86.5	88.3	49	65.0	2	5	270	0.00	30.093 
11:35	87.0	87.0	89.4	50	66.1	1	4	248	0.00	30.091 
11:40	87.6	87.6	90.4	50	66.6	2	5	248	0.00	30.088 
11:45	87.8	87.8	90.0	48	65.6	2	4	270	0.00	30.087 
11:50	88.0	88.0	91.0	50	67.0	1	3	270	0.00	30.088 
11:55	88.2	88.2	90.0	46	64.8	2	4	270	0.00	30.087 
12:00	88.0	88.0	90.3	48	65.8	2	3	248	0.00	30.085 
12:05	87.6	87.6	89.1	46	64.2	1	3	248	0.00	30.083 
12:10	87.2	87.2	89.1	48	65.1	1	4	270	0.00	30.084 
12:15	87.2	87.2	89.1	48	65.1	1	3	270	0.00	30.084 
12:20	87.4	87.4	89.7	49	65.9	1	2	270	0.00	30.085 
12:25	87.0	87.0	89.1	49	65.5	1	4	248	0.00	30.083 
12:30	86.7	86.7	88.9	50	65.8	1	3	248	0.00	30.081 
12:35	87.0	87.0	89.1	49	65.5	1	3	315	0.00	30.080 
12:40	87.0	87.0	89.4	50	66.1	1	3	292	0.00	30.079 
12:45	87.2	87.2	89.1	48	65.1	1	3	248	0.00	30.079 
12:50	87.4	87.4	89.7	49	65.9	1	4	248	0.00	30.078 
12:55	87.6	87.6	89.7	48	65.4	1	3	270	0.00	30.076 
13:00	88.2	88.2	90.3	47	65.4	1	2	270	0.00	30.072 
13:05	88.4	88.4	90.6	47	65.6	2	4	270	0.00	30.074 
13:10	88.6	88.6	91.0	47	65.7	2	5	270	0.00	30.071 
13:15	89.0	89.0	92.0	48	66.7	1	3	270	0.00	30.071 
13:20	89.3	89.3	91.0	44	64.5	2	5	270	0.00	30.069 
13:25	89.3	89.3	92.1	47	66.4	1	5	270	0.00	30.068 
13:30	89.5	89.5	91.7	45	65.3	1	3	270	0.00	30.064 
13:35	89.3	89.3	91.7	46	65.8	2	5	270	0.00	30.066 
13:40	89.0	89.0	92.4	49	67.3	1	5	270	0.00	30.066 
13:45	89.0	89.0	91.2	46	65.5	1	4	270	0.00	30.065 
13:50	88.6	88.6	91.0	47	65.7	2	4	270	0.00	30.065 
13:55	88.4	88.4	91.3	49	66.8	1	4	270	0.00	30.065 
14:00	88.0	88.0	89.7	46	64.6	2	6	248	0.00	30.065 
14:05	88.0	88.0	90.3	48	65.8	1	3	248	0.00	30.065 
14:10	88.2	88.2	90.7	48	66.0	1	3	292	0.00	30.065 
14:15	88.6	88.6	89.9	44	63.9	1	3	270	0.00	30.064 
14:20	88.4	88.4	90.0	45	64.3	1	5	270	0.00	30.065 
14:25	88.2	88.2	90.3	47	65.4	1	3	292	0.00	30.066 
14:30	88.8	88.8	91.3	47	65.9	1	3	270	0.00	30.065 
14:35	89.5	89.5	91.7	45	65.3	1	5	270	0.00	30.065 
14:40	89.7	89.7	91.3	43	64.2	2	4	270	0.00	30.066 
14:45	89.0	89.0	90.9	45	64.9	1	4	270	0.00	30.065 
14:50	88.6	88.6	92.1	50	67.5	1	3	270	0.00	30.065 
14:55	89.0	89.0	91.6	47	66.1	1	4	270	0.00	30.064 
15:00	88.8	88.8	90.9	46	65.3	1	4	270	0.00	30.063 
15:05	89.0	89.0	91.2	46	65.5	2	5	270	0.00	30.064 
15:10	89.5	89.5	91.7	45	65.3	1	4	338	0.00	30.062 
15:15	89.7	89.7	92.0	45	65.5	2	6	248	0.00	30.061 
15:20	89.3	89.3	91.0	44	64.5	2	7	248	0.00	30.057 
15:25	88.8	88.8	90.9	46	65.3	2	5	248	0.00	30.058 
15:30	89.0	89.0	90.9	45	64.9	1	4	248	0.00	30.064 
15:35	88.8	88.8	90.6	45	64.7	1	4	270	0.00	30.064 
15:40	88.8	88.8	90.9	46	65.3	1	3	270	0.00	30.064 
15:45	89.0	89.0	90.5	44	64.2	2	4	248	0.00	30.064 
15:50	89.0	89.0	90.5	44	64.2	1	4	270	0.00	30.064 
15:55	89.3	89.3	90.3	42	63.2	2	4	270	0.00	30.064 
16:00	89.3	89.3	90.6	43	63.8	2	5	270	0.00	30.065 
16:05	89.5	89.5	91.3	44	64.7	1	4	270	0.00	30.065 
16:10	89.5	89.5	90.3	41	62.6	1	4	270	0.00	30.065 
16:15	89.3	89.3	90.3	42	63.2	1	4	248	0.00	30.064 
16:20	89.5	89.5	91.0	43	64.0	1	4	248	0.00	30.065 
16:25	89.3	89.3	90.6	43	63.8	1	3	248	0.00	30.062 
16:30	89.0	89.0	90.5	44	64.2	1	3	270	0.00	30.061 
16:35	88.8	88.8	90.2	44	64.0	2	5	248	0.00	30.063 
16:40	88.4	88.4	90.0	45	64.3	1	3	248	0.00	30.064 
16:45	88.2	88.2	89.3	44	63.5	1	3	248	0.00	30.067 
16:50	88.0	88.0	89.7	46	64.6	1	2	270	0.00	30.065 
16:55	88.0	88.0	90.0	47	65.2	1	3	292	0.00	30.065 
17:00	88.0	88.0	90.0	47	65.2	0	1	292	0.00	30.065 
17:05	87.6	87.6	89.4	47	64.8	1	3	270	0.00	30.065 
17:10	87.2	87.2	89.1	48	65.1	0	2	270	0.00	30.065 
17:15	86.7	86.7	88.6	49	65.2	1	3	270	0.00	30.065 
17:20	86.7	86.7	88.6	49	65.2	1	3	270	0.00	30.063 
17:25	87.0	87.0	89.1	49	65.5	0	2	270	0.00	30.064 
17:30	87.2	87.2	89.4	49	65.7	0	2	270	0.00	30.059 
17:35	87.0	87.0	88.2	46	63.7	1	3	270	0.00	30.059 
17:40	86.7	86.7	88.3	48	64.6	1	3	270	0.00	30.061 
17:45	86.3	86.3	88.0	49	64.9	0	2	270	0.00	30.062 
17:50	86.3	86.3	87.8	48	64.3	0	2	248	0.00	30.061 
17:55	86.1	86.1	87.2	47	63.5	1	2	270	0.00	30.057 
18:00	86.1	86.1	87.8	49	64.7	1	3	270	0.00	30.065 
18:05	85.9	85.9	87.7	50	65.1	1	2	248	0.00	30.063 
18:10	85.7	85.7	87.4	50	64.9	0	4	248	0.00	30.062 
18:15	85.7	85.7	87.4	50	64.9	1	3	248	0.00	30.061 
18:20	85.7	85.7	87.7	51	65.5	1	2	248	0.00	30.065 
18:25	85.7	85.7	87.7	51	65.5	0	2	248	0.00	30.064 
18:30	85.7	85.7	87.7	51	65.5	1	2	248	0.00	30.064 
18:35	85.5	85.5	87.7	52	65.8	0	2	248	0.00	30.066 
18:40	85.3	85.3	87.4	52	65.6	0	1	248	0.00	30.065 
18:45	85.3	85.3	87.7	53	66.2	1	2	248	0.00	30.065 
18:50	85.3	85.3	88.0	54	66.7	0	1	248	0.00	30.070 
18:55	85.1	85.1	87.9	55	67.1	0	1	248	0.00	30.069 
19:00	85.1	85.1	88.2	56	67.6	0	2	248	0.00	30.067 
19:05	85.1	85.1	88.2	56	67.6	1	3	248	0.00	30.065 
19:10	85.1	85.1	88.2	56	67.6	1	2	248	0.00	30.064 
19:15	84.9	84.9	87.9	56	67.4	1	3	248	0.00	30.063 
19:20	84.5	84.5	87.3	56	67.0	1	4	248	0.00	30.065 
19:25	84.3	84.3	87.2	57	67.4	1	2	270	0.00	30.063 
19:30	84.1	84.1	86.9	57	67.2	1	3	270	0.00	30.064 
19:35	84.0	84.0	87.0	58	67.6	0	3	270	0.00	30.062 
19:40	83.8	83.8	86.7	58	67.4	0	2	248	0.00	30.061 
19:45	83.6	83.6	86.6	59	67.7	0	1	248	0.00	30.061 
19:50	83.4	83.4	86.3	59	67.5	0	2	248	0.00	30.061 
19:55	83.2	83.2	86.2	60	67.8	0	1	248	0.00	30.059 
20:00	83.0	83.0	86.1	61	68.1	0	1	248	0.00	30.060 
20:05	82.6	82.6	85.5	61	67.8	0	1	248	0.00	30.063 
20:10	82.4	82.4	85.4	62	68.0	0	1	248	0.00	30.063 
20:15	82.2	82.2	85.1	62	67.9	0	1	248	0.00	30.065 
20:20	82.0	82.0	84.8	62	67.7	0	1	248	0.00	30.064 
20:25	81.8	81.8	84.7	63	67.9	0	0	---	0.00	30.064 
20:30	81.4	81.4	84.1	63	67.6	0	1	248	0.00	30.065 
20:35	81.2	81.2	84.0	64	67.8	0	1	248	0.00	30.068 
20:40	81.2	81.2	84.0	64	67.8	0	1	248	0.00	30.071 
20:45	80.9	80.9	83.7	65	68.0	0	1	248	0.00	30.079 
20:50	80.9	80.9	83.7	65	68.0	0	1	248	0.00	30.082 
20:55	80.9	80.9	83.7	65	68.0	0	0	---	0.00	30.083 
21:00	80.7	80.7	83.4	65	67.8	0	0	---	0.00	30.087 
21:05	80.5	80.5	83.2	66	68.1	0	0	---	0.00	30.081 
21:10	80.1	80.1	82.6	66	67.7	0	0	---	0.00	30.084 
21:15	79.9	79.9	82.5	67	67.9	0	0	---	0.00	30.087 
21:20	79.8	79.8	82.3	67	67.8	0	0	---	0.00	30.091 
21:25	79.6	79.6	82.0	67	67.7	0	0	---	0.00	30.092 
21:30	79.4	79.4	81.8	68	67.9	0	0	---	0.00	30.092 
21:35	79.2	79.2	81.5	68	67.7	0	0	---	0.00	30.093 
21:40	79.2	79.2	81.5	68	67.7	0	0	---	0.00	30.094 
21:45	79.0	79.0	81.3	69	67.9	0	0	---	0.00	30.093 
21:50	78.8	78.8	81.1	70	68.2	0	0	---	0.00	30.092 
21:55	78.6	78.6	80.8	70	68.0	0	0	---	0.00	30.091 
22:00	78.5	78.5	80.7	70	67.9	0	0	---	0.00	30.092 
22:05	78.1	78.1	80.2	71	67.9	0	0	---	0.00	30.091 
22:10	77.9	77.9	79.9	72	68.1	0	0	---	0.00	30.091 
22:15	77.7	77.7	79.7	72	67.9	0	0	---	0.00	30.090 
22:20	77.4	77.4	79.3	73	68.0	0	0	---	0.00	30.089 
22:25	77.2	77.2	79.0	74	68.3	0	0	---	0.00	30.089 
22:30	77.0	77.0	78.7	74	68.1	0	0	---	0.00	30.088 
22:35	76.8	76.8	78.4	75	68.3	0	0	---	0.00	30.089 
22:40	76.5	76.5	78.0	76	68.4	0	0	---	0.00	30.086 
22:45	76.3	76.3	77.6	78	68.9	0	1	248	0.00	30.081 
22:50	76.1	76.1	77.3	78	68.7	0	0	---	0.00	30.082 
22:55	76.0	76.0	77.2	78	68.6	0	0	---	0.00	30.079 
23:00	75.8	75.8	76.8	79	68.8	0	0	---	0.00	30.078 
23:05	75.6	75.6	76.5	79	68.6	0	0	---	0.00	30.076 
23:10	75.4	75.4	76.1	80	68.8	0	0	---	0.00	30.076 
23:15	75.3	75.3	76.0	80	68.7	0	0	---	0.00	30.076 
23:20	75.1	75.1	75.6	81	68.9	0	0	---	0.00	30.076 
23:25	74.9	74.9	74.9	81	68.7	0	0	---	0.00	30.075 
23:30	74.7	74.7	74.7	81	68.5	0	0	---	0.00	30.075 
23:35	74.7	74.7	74.7	82	68.8	0	0	---	0.00	30.075 
23:40	74.6	74.6	74.6	82	68.7	0	0	---	0.00	30.076 
23:45	74.4	74.4	74.4	83	68.9	0	0	---	0.00	30.075 
23:50	74.2	74.2	74.2	83	68.7	0	0	---	0.00	30.075 
23:55	74.0	74.0	74.0	84	68.8	0	0	---	0.00	30.074 

CoCoRaHS
IN-AL-39
A2 Web Hosting
Creative Commons License
GoDaddy
Look for:

loaded 2017-10-16 18:17:19 • last modified 2010-11-18 10:43:29
Privacy PolicyDisclaimer
• wx.awcolley.com is powered by PmWiki v.2002016 •
• all content (unless otherwise noted) © 2017 A W Colley